sensor_id;sensor_type;location;lat;lon;timestamp;P1;durP1;ratioP1;P2;durP2;ratioP2
64959;SDS011;51487;52.266;10.542;2022-11-20T00:01:08;14.45;;;9.90;;
64959;SDS011;51487;52.266;10.542;2022-11-20T00:03:41;13.18;;;9.50;;
64959;SDS011;51487;52.266;10.542;2022-11-20T00:06:07;13.95;;;8.77;;
64959;SDS011;51487;52.266;10.542;2022-11-20T00:08:37;12.68;;;8.38;;
64959;SDS011;51487;52.266;10.542;2022-11-20T00:11:03;11.25;;;8.43;;
64959;SDS011;51487;52.266;10.542;2022-11-20T00:13:34;10.60;;;7.82;;
64959;SDS011;51487;52.266;10.542;2022-11-20T00:16:01;10.13;;;7.97;;
64959;SDS011;51487;52.266;10.542;2022-11-20T00:18:30;10.45;;;8.55;;
64959;SDS011;51487;52.266;10.542;2022-11-20T00:21:04;11.80;;;8.23;;
64959;SDS011;51487;52.266;10.542;2022-11-20T00:23:32;11.43;;;8.18;;
64959;SDS011;51487;52.266;10.542;2022-11-20T00:26:02;11.48;;;8.63;;
64959;SDS011;51487;52.266;10.542;2022-11-20T00:28:29;13.25;;;8.65;;
64959;SDS011;51487;52.266;10.542;2022-11-20T00:31:02;10.45;;;8.25;;
64959;SDS011;51487;52.266;10.542;2022-11-20T00:33:34;9.75;;;7.28;;
64959;SDS011;51487;52.266;10.542;2022-11-20T00:36:07;11.20;;;8.40;;
64959;SDS011;51487;52.266;10.542;2022-11-20T00:38:36;11.02;;;8.15;;
64959;SDS011;51487;52.266;10.542;2022-11-20T00:41:05;10.98;;;7.95;;
64959;SDS011;51487;52.266;10.542;2022-11-20T00:43:34;11.95;;;8.98;;
64959;SDS011;51487;52.266;10.542;2022-11-20T00:46:01;10.88;;;8.38;;
64959;SDS011;51487;52.266;10.542;2022-11-20T00:48:30;12.20;;;8.45;;
64959;SDS011;51487;52.266;10.542;2022-11-20T00:50:56;13.07;;;8.75;;
64959;SDS011;51487;52.266;10.542;2022-11-20T00:53:22;12.40;;;8.35;;
64959;SDS011;51487;52.266;10.542;2022-11-20T00:56:01;11.85;;;8.70;;
64959;SDS011;51487;52.266;10.542;2022-11-20T00:58:30;11.13;;;8.30;;
64959;SDS011;51487;52.266;10.542;2022-11-20T01:01:06;10.55;;;7.72;;
64959;SDS011;51487;52.266;10.542;2022-11-20T01:03:39;12.55;;;8.45;;
64959;SDS011;51487;52.266;10.542;2022-11-20T01:06:20;11.18;;;7.93;;
64959;SDS011;51487;52.266;10.542;2022-11-20T01:08:55;12.45;;;8.43;;
64959;SDS011;51487;52.266;10.542;2022-11-20T01:11:28;12.00;;;8.15;;
64959;SDS011;51487;52.266;10.542;2022-11-20T01:13:59;11.13;;;7.78;;
64959;SDS011;51487;52.266;10.542;2022-11-20T01:16:28;10.10;;;7.95;;
64959;SDS011;51487;52.266;10.542;2022-11-20T01:18:58;14.65;;;8.30;;
64959;SDS011;51487;52.266;10.542;2022-11-20T01:21:27;11.15;;;7.95;;
64959;SDS011;51487;52.266;10.542;2022-11-20T01:23:56;10.55;;;7.40;;
64959;SDS011;51487;52.266;10.542;2022-11-20T01:26:26;11.43;;;8.65;;
64959;SDS011;51487;52.266;10.542;2022-11-20T01:28:55;11.68;;;8.35;;
64959;SDS011;51487;52.266;10.542;2022-11-20T01:31:23;12.10;;;8.38;;
64959;SDS011;51487;52.266;10.542;2022-11-20T01:33:52;9.45;;;7.50;;
64959;SDS011;51487;52.266;10.542;2022-11-20T01:36:22;11.18;;;8.52;;
64959;SDS011;51487;52.266;10.542;2022-11-20T01:38:51;11.00;;;8.10;;
64959;SDS011;51487;52.266;10.542;2022-11-20T01:41:23;9.88;;;8.23;;
64959;SDS011;51487;52.266;10.542;2022-11-20T01:44:10;11.18;;;8.35;;
64959;SDS011;51487;52.266;10.542;2022-11-20T01:46:40;12.35;;;8.18;;
64959;SDS011;51487;52.266;10.542;2022-11-20T01:49:31;10.43;;;8.23;;
64959;SDS011;51487;52.266;10.542;2022-11-20T01:52:17;11.30;;;8.38;;
64959;SDS011;51487;52.266;10.542;2022-11-20T01:54:54;11.27;;;8.10;;
64959;SDS011;51487;52.266;10.542;2022-11-20T01:57:45;10.40;;;8.40;;
64959;SDS011;51487;52.266;10.542;2022-11-20T02:00:14;11.27;;;8.68;;
64959;SDS011;51487;52.266;10.542;2022-11-20T02:02:42;10.93;;;7.93;;
64959;SDS011;51487;52.266;10.542;2022-11-20T02:05:20;10.55;;;8.32;;
64959;SDS011;51487;52.266;10.542;2022-11-20T02:07:53;10.07;;;8.23;;
64959;SDS011;51487;52.266;10.542;2022-11-20T02:10:21;11.70;;;8.77;;
64959;SDS011;51487;52.266;10.542;2022-11-20T02:12:47;12.98;;;8.70;;
64959;SDS011;51487;52.266;10.542;2022-11-20T02:15:32;11.70;;;8.68;;
64959;SDS011;51487;52.266;10.542;2022-11-20T02:17:58;12.55;;;8.52;;
64959;SDS011;51487;52.266;10.542;2022-11-20T02:20:24;12.57;;;8.05;;
64959;SDS011;51487;52.266;10.542;2022-11-20T02:22:53;13.40;;;9.07;;
64959;SDS011;51487;52.266;10.542;2022-11-20T02:25:25;13.63;;;9.38;;
64959;SDS011;51487;52.266;10.542;2022-11-20T02:27:53;13.57;;;8.52;;
64959;SDS011;51487;52.266;10.542;2022-11-20T02:30:19;10.93;;;8.05;;
64959;SDS011;51487;52.266;10.542;2022-11-20T02:32:44;13.77;;;9.27;;
64959;SDS011;51487;52.266;10.542;2022-11-20T02:37:46;13.30;;;8.93;;
64959;SDS011;51487;52.266;10.542;2022-11-20T02:40:14;12.45;;;9.00;;
64959;SDS011;51487;52.266;10.542;2022-11-20T02:42:40;14.18;;;8.90;;
64959;SDS011;51487;52.266;10.542;2022-11-20T02:45:05;11.25;;;8.45;;
64959;SDS011;51487;52.266;10.542;2022-11-20T02:47:32;11.45;;;8.05;;
64959;SDS011;51487;52.266;10.542;2022-11-20T02:49:58;14.18;;;8.80;;
64959;SDS011;51487;52.266;10.542;2022-11-20T02:52:24;12.80;;;8.50;;
64959;SDS011;51487;52.266;10.542;2022-11-20T02:54:50;10.50;;;8.60;;
64959;SDS011;51487;52.266;10.542;2022-11-20T02:57:16;11.38;;;8.73;;
64959;SDS011;51487;52.266;10.542;2022-11-20T02:59:41;12.80;;;8.70;;
64959;SDS011;51487;52.266;10.542;2022-11-20T03:02:07;11.48;;;8.18;;
64959;SDS011;51487;52.266;10.542;2022-11-20T03:04:32;11.50;;;8.20;;
64959;SDS011;51487;52.266;10.542;2022-11-20T03:06:58;11.45;;;8.25;;
64959;SDS011;51487;52.266;10.542;2022-11-20T03:09:23;11.65;;;8.13;;
64959;SDS011;51487;52.266;10.542;2022-11-20T03:11:49;10.20;;;7.80;;
64959;SDS011;51487;52.266;10.542;2022-11-20T03:14:14;10.98;;;7.97;;
64959;SDS011;51487;52.266;10.542;2022-11-20T03:16:40;10.48;;;8.50;;
64959;SDS011;51487;52.266;10.542;2022-11-20T03:19:05;11.73;;;8.23;;
64959;SDS011;51487;52.266;10.542;2022-11-20T03:21:35;12.55;;;8.30;;
64959;SDS011;51487;52.266;10.542;2022-11-20T03:24:01;11.07;;;8.10;;
64959;SDS011;51487;52.266;10.542;2022-11-20T03:26:28;9.65;;;8.02;;
64959;SDS011;51487;52.266;10.542;2022-11-20T03:28:55;10.75;;;8.32;;
64959;SDS011;51487;52.266;10.542;2022-11-20T03:31:26;12.23;;;8.63;;
64959;SDS011;51487;52.266;10.542;2022-11-20T03:34:05;9.93;;;7.57;;
64959;SDS011;51487;52.266;10.542;2022-11-20T03:36:33;10.52;;;7.78;;
64959;SDS011;51487;52.266;10.542;2022-11-20T03:38:59;10.32;;;8.38;;
64959;SDS011;51487;52.266;10.542;2022-11-20T03:41:25;10.27;;;8.00;;
64959;SDS011;51487;52.266;10.542;2022-11-20T03:44:00;10.85;;;7.80;;
64959;SDS011;51487;52.266;10.542;2022-11-20T03:46:28;11.02;;;8.32;;
64959;SDS011;51487;52.266;10.542;2022-11-20T03:48:54;9.93;;;7.13;;
64959;SDS011;51487;52.266;10.542;2022-11-20T03:51:28;10.10;;;7.38;;
64959;SDS011;51487;52.266;10.542;2022-11-20T03:53:59;9.95;;;7.97;;
64959;SDS011;51487;52.266;10.542;2022-11-20T03:56:29;9.60;;;7.38;;
64959;SDS011;51487;52.266;10.542;2022-11-20T03:58:58;11.02;;;8.25;;
64959;SDS011;51487;52.266;10.542;2022-11-20T04:01:26;9.55;;;7.93;;
64959;SDS011;51487;52.266;10.542;2022-11-20T04:04:00;12.15;;;8.70;;
64959;SDS011;51487;52.266;10.542;2022-11-20T04:06:30;10.77;;;7.88;;
64959;SDS011;51487;52.266;10.542;2022-11-20T04:09:00;9.20;;;7.55;;
64959;SDS011;51487;52.266;10.542;2022-11-20T04:11:28;12.20;;;8.73;;
64959;SDS011;51487;52.266;10.542;2022-11-20T04:13:58;10.07;;;8.02;;
64959;SDS011;51487;52.266;10.542;2022-11-20T04:16:26;9.70;;;8.20;;
64959;SDS011;51487;52.266;10.542;2022-11-20T04:18:55;10.32;;;7.95;;
64959;SDS011;51487;52.266;10.542;2022-11-20T04:21:23;10.38;;;8.60;;
64959;SDS011;51487;52.266;10.542;2022-11-20T04:23:50;10.70;;;7.90;;
64959;SDS011;51487;52.266;10.542;2022-11-20T04:26:18;11.43;;;8.43;;
64959;SDS011;51487;52.266;10.542;2022-11-20T04:28:44;13.02;;;8.75;;
64959;SDS011;51487;52.266;10.542;2022-11-20T04:31:14;11.27;;;8.25;;
64959;SDS011;51487;52.266;10.542;2022-11-20T04:33:43;10.63;;;8.43;;
64959;SDS011;51487;52.266;10.542;2022-11-20T04:38:39;11.98;;;8.23;;
64959;SDS011;51487;52.266;10.542;2022-11-20T04:41:06;10.45;;;8.02;;
64959;SDS011;51487;52.266;10.542;2022-11-20T04:43:34;11.10;;;8.50;;
64959;SDS011;51487;52.266;10.542;2022-11-20T04:46:00;12.48;;;8.90;;
64959;SDS011;51487;52.266;10.542;2022-11-20T04:48:26;11.55;;;8.57;;
64959;SDS011;51487;52.266;10.542;2022-11-20T04:50:54;11.63;;;8.30;;
64959;SDS011;51487;52.266;10.542;2022-11-20T04:53:20;11.93;;;8.77;;
64959;SDS011;51487;52.266;10.542;2022-11-20T04:55:47;12.10;;;9.32;;
64959;SDS011;51487;52.266;10.542;2022-11-20T04:58:13;11.15;;;8.50;;
64959;SDS011;51487;52.266;10.542;2022-11-20T05:00:39;11.90;;;8.65;;
64959;SDS011;51487;52.266;10.542;2022-11-20T05:03:05;11.20;;;8.80;;
64959;SDS011;51487;52.266;10.542;2022-11-20T05:05:31;10.07;;;8.07;;
64959;SDS011;51487;52.266;10.542;2022-11-20T05:07:59;12.80;;;8.60;;
64959;SDS011;51487;52.266;10.542;2022-11-20T05:10:25;11.63;;;9.05;;
64959;SDS011;51487;52.266;10.542;2022-11-20T05:12:52;12.02;;;8.48;;
64959;SDS011;51487;52.266;10.542;2022-11-20T05:15:18;12.55;;;8.57;;
64959;SDS011;51487;52.266;10.542;2022-11-20T05:17:47;12.07;;;7.85;;
64959;SDS011;51487;52.266;10.542;2022-11-20T05:20:14;11.32;;;8.50;;
64959;SDS011;51487;52.266;10.542;2022-11-20T05:22:40;12.60;;;8.10;;
64959;SDS011;51487;52.266;10.542;2022-11-20T05:25:05;10.23;;;8.43;;
64959;SDS011;51487;52.266;10.542;2022-11-20T05:27:31;11.20;;;7.90;;
64959;SDS011;51487;52.266;10.542;2022-11-20T05:29:57;11.40;;;8.52;;
64959;SDS011;51487;52.266;10.542;2022-11-20T05:32:22;10.65;;;8.52;;
64959;SDS011;51487;52.266;10.542;2022-11-20T05:34:50;12.02;;;8.75;;
64959;SDS011;51487;52.266;10.542;2022-11-20T05:37:16;10.55;;;8.23;;
64959;SDS011;51487;52.266;10.542;2022-11-20T05:39:42;11.02;;;7.95;;
64959;SDS011;51487;52.266;10.542;2022-11-20T05:42:07;9.68;;;7.72;;
64959;SDS011;51487;52.266;10.542;2022-11-20T05:44:52;9.98;;;7.68;;
64959;SDS011;51487;52.266;10.542;2022-11-20T05:47:17;11.02;;;8.15;;
64959;SDS011;51487;52.266;10.542;2022-11-20T05:49:43;13.55;;;8.65;;
64959;SDS011;51487;52.266;10.542;2022-11-20T05:52:08;10.07;;;7.57;;
64959;SDS011;51487;52.266;10.542;2022-11-20T05:54:34;10.75;;;8.13;;
64959;SDS011;51487;52.266;10.542;2022-11-20T05:56:59;12.02;;;8.65;;
64959;SDS011;51487;52.266;10.542;2022-11-20T05:59:25;10.65;;;7.72;;
64959;SDS011;51487;52.266;10.542;2022-11-20T06:01:50;10.02;;;7.95;;
64959;SDS011;51487;52.266;10.542;2022-11-20T06:04:16;10.02;;;7.43;;
64959;SDS011;51487;52.266;10.542;2022-11-20T06:06:41;10.10;;;7.97;;
64959;SDS011;51487;52.266;10.542;2022-11-20T06:09:07;12.95;;;7.85;;
64959;SDS011;51487;52.266;10.542;2022-11-20T06:11:32;9.43;;;7.72;;
64959;SDS011;51487;52.266;10.542;2022-11-20T06:13:58;10.60;;;8.15;;
64959;SDS011;51487;52.266;10.542;2022-11-20T06:16:23;10.65;;;7.70;;
64959;SDS011;51487;52.266;10.542;2022-11-20T06:18:49;9.73;;;7.72;;
64959;SDS011;51487;52.266;10.542;2022-11-20T06:21:15;9.70;;;7.55;;
64959;SDS011;51487;52.266;10.542;2022-11-20T06:23:45;9.38;;;7.40;;
64959;SDS011;51487;52.266;10.542;2022-11-20T06:26:17;10.38;;;7.72;;
64959;SDS011;51487;52.266;10.542;2022-11-20T06:28:46;11.63;;;7.75;;
64959;SDS011;51487;52.266;10.542;2022-11-20T06:31:13;10.95;;;7.53;;
64959;SDS011;51487;52.266;10.542;2022-11-20T06:33:40;8.90;;;7.70;;
64959;SDS011;51487;52.266;10.542;2022-11-20T06:36:07;10.70;;;7.85;;
64959;SDS011;51487;52.266;10.542;2022-11-20T06:38:32;10.57;;;7.72;;
64959;SDS011;51487;52.266;10.542;2022-11-20T06:40:58;9.23;;;7.65;;
64959;SDS011;51487;52.266;10.542;2022-11-20T06:43:23;10.05;;;8.00;;
64959;SDS011;51487;52.266;10.542;2022-11-20T06:45:54;10.55;;;8.20;;
64959;SDS011;51487;52.266;10.542;2022-11-20T06:48:21;10.38;;;7.80;;
64959;SDS011;51487;52.266;10.542;2022-11-20T06:50:48;10.48;;;8.20;;
64959;SDS011;51487;52.266;10.542;2022-11-20T06:53:14;9.43;;;7.70;;
64959;SDS011;51487;52.266;10.542;2022-11-20T06:55:44;10.43;;;7.95;;
64959;SDS011;51487;52.266;10.542;2022-11-20T06:58:13;12.52;;;8.27;;
64959;SDS011;51487;52.266;10.542;2022-11-20T07:00:40;11.40;;;8.30;;
64959;SDS011;51487;52.266;10.542;2022-11-20T07:03:07;10.27;;;7.78;;
64959;SDS011;51487;52.266;10.542;2022-11-20T07:05:34;13.52;;;7.63;;
64959;SDS011;51487;52.266;10.542;2022-11-20T07:08:01;11.05;;;8.25;;
64959;SDS011;51487;52.266;10.542;2022-11-20T07:10:28;9.20;;;7.93;;
64959;SDS011;51487;52.266;10.542;2022-11-20T07:12:53;11.38;;;8.10;;
64959;SDS011;51487;52.266;10.542;2022-11-20T07:15:20;9.95;;;7.47;;
64959;SDS011;51487;52.266;10.542;2022-11-20T07:17:47;12.45;;;8.32;;
64959;SDS011;51487;52.266;10.542;2022-11-20T07:20:13;10.10;;;7.68;;
64959;SDS011;51487;52.266;10.542;2022-11-20T07:22:40;10.63;;;8.38;;
64959;SDS011;51487;52.266;10.542;2022-11-20T07:25:06;10.18;;;7.88;;
64959;SDS011;51487;52.266;10.542;2022-11-20T07:27:32;9.13;;;7.63;;
64959;SDS011;51487;52.266;10.542;2022-11-20T07:29:59;9.13;;;8.13;;
64959;SDS011;51487;52.266;10.542;2022-11-20T07:32:25;10.30;;;7.82;;
64959;SDS011;51487;52.266;10.542;2022-11-20T07:34:51;11.60;;;8.63;;
64959;SDS011;51487;52.266;10.542;2022-11-20T07:37:16;10.25;;;8.13;;
64959;SDS011;51487;52.266;10.542;2022-11-20T07:39:42;10.02;;;8.10;;
64959;SDS011;51487;52.266;10.542;2022-11-20T07:42:07;12.43;;;9.25;;
64959;SDS011;51487;52.266;10.542;2022-11-20T07:44:33;10.88;;;8.18;;
64959;SDS011;51487;52.266;10.542;2022-11-20T07:46:59;9.73;;;7.88;;
64959;SDS011;51487;52.266;10.542;2022-11-20T07:49:25;10.68;;;8.40;;
64959;SDS011;51487;52.266;10.542;2022-11-20T07:51:50;10.55;;;7.93;;
64959;SDS011;51487;52.266;10.542;2022-11-20T07:54:18;10.85;;;8.52;;
64959;SDS011;51487;52.266;10.542;2022-11-20T07:56:45;11.18;;;8.02;;
64959;SDS011;51487;52.266;10.542;2022-11-20T07:59:11;10.10;;;8.40;;
64959;SDS011;51487;52.266;10.542;2022-11-20T08:01:38;12.50;;;8.25;;
64959;SDS011;51487;52.266;10.542;2022-11-20T08:04:04;12.52;;;9.18;;
64959;SDS011;51487;52.266;10.542;2022-11-20T08:06:30;11.27;;;8.00;;
64959;SDS011;51487;52.266;10.542;2022-11-20T08:08:56;12.32;;;8.55;;
64959;SDS011;51487;52.266;10.542;2022-11-20T08:11:22;11.43;;;8.50;;
64959;SDS011;51487;52.266;10.542;2022-11-20T08:14:07;11.35;;;8.15;;
64959;SDS011;51487;52.266;10.542;2022-11-20T08:16:47;11.60;;;8.35;;
64959;SDS011;51487;52.266;10.542;2022-11-20T08:19:15;12.73;;;8.48;;
64959;SDS011;51487;52.266;10.542;2022-11-20T08:21:43;11.63;;;8.20;;
64959;SDS011;51487;52.266;10.542;2022-11-20T08:24:09;10.68;;;8.63;;
64959;SDS011;51487;52.266;10.542;2022-11-20T08:26:36;13.07;;;8.65;;
64959;SDS011;51487;52.266;10.542;2022-11-20T08:29:03;10.40;;;8.15;;
64959;SDS011;51487;52.266;10.542;2022-11-20T08:31:30;10.45;;;7.57;;
64959;SDS011;51487;52.266;10.542;2022-11-20T08:33:56;10.30;;;7.78;;
64959;SDS011;51487;52.266;10.542;2022-11-20T08:36:22;12.25;;;8.40;;
64959;SDS011;51487;52.266;10.542;2022-11-20T08:38:52;9.35;;;7.50;;
64959;SDS011;51487;52.266;10.542;2022-11-20T08:41:20;11.25;;;8.52;;
64959;SDS011;51487;52.266;10.542;2022-11-20T08:43:52;9.70;;;7.93;;
64959;SDS011;51487;52.266;10.542;2022-11-20T08:46:21;8.48;;;7.22;;
64959;SDS011;51487;52.266;10.542;2022-11-20T08:48:51;11.43;;;8.02;;
64959;SDS011;51487;52.266;10.542;2022-11-20T08:51:17;9.85;;;8.20;;
64959;SDS011;51487;52.266;10.542;2022-11-20T08:53:44;10.07;;;8.00;;
64959;SDS011;51487;52.266;10.542;2022-11-20T08:56:11;9.90;;;7.60;;
64959;SDS011;51487;52.266;10.542;2022-11-20T08:58:37;10.75;;;7.35;;
64959;SDS011;51487;52.266;10.542;2022-11-20T09:01:04;9.85;;;7.68;;
64959;SDS011;51487;52.266;10.542;2022-11-20T09:03:30;9.85;;;7.70;;
64959;SDS011;51487;52.266;10.542;2022-11-20T09:05:56;10.85;;;8.02;;
64959;SDS011;51487;52.266;10.542;2022-11-20T09:08:28;11.10;;;8.13;;
64959;SDS011;51487;52.266;10.542;2022-11-20T09:10:55;10.07;;;8.13;;
64959;SDS011;51487;52.266;10.542;2022-11-20T09:13:22;11.07;;;8.05;;
64959;SDS011;51487;52.266;10.542;2022-11-20T09:15:52;12.40;;;8.25;;
64959;SDS011;51487;52.266;10.542;2022-11-20T09:18:22;10.73;;;8.30;;
64959;SDS011;51487;52.266;10.542;2022-11-20T09:20:49;10.38;;;7.22;;
64959;SDS011;51487;52.266;10.542;2022-11-20T09:23:15;9.32;;;7.60;;
64959;SDS011;51487;52.266;10.542;2022-11-20T09:25:41;10.50;;;8.05;;
64959;SDS011;51487;52.266;10.542;2022-11-20T09:28:07;10.57;;;7.93;;
64959;SDS011;51487;52.266;10.542;2022-11-20T09:30:32;9.23;;;7.72;;
64959;SDS011;51487;52.266;10.542;2022-11-20T09:32:58;9.80;;;7.97;;
64959;SDS011;51487;52.266;10.542;2022-11-20T09:35:23;10.60;;;7.60;;
64959;SDS011;51487;52.266;10.542;2022-11-20T09:37:49;12.52;;;8.65;;
64959;SDS011;51487;52.266;10.542;2022-11-20T09:40:25;10.48;;;8.35;;
64959;SDS011;51487;52.266;10.542;2022-11-20T09:42:58;11.05;;;7.78;;
64959;SDS011;51487;52.266;10.542;2022-11-20T09:48:16;9.93;;;7.38;;
64959;SDS011;51487;52.266;10.542;2022-11-20T09:54:06;9.10;;;7.50;;
64959;SDS011;51487;52.266;10.542;2022-11-20T09:56:45;11.30;;;8.07;;
64959;SDS011;51487;52.266;10.542;2022-11-20T09:59:23;10.70;;;8.43;;
64959;SDS011;51487;52.266;10.542;2022-11-20T10:01:58;8.57;;;6.85;;
64959;SDS011;51487;52.266;10.542;2022-11-20T10:04:26;9.05;;;7.30;;
64959;SDS011;51487;52.266;10.542;2022-11-20T10:07:15;9.75;;;7.30;;
64959;SDS011;51487;52.266;10.542;2022-11-20T10:09:53;10.57;;;7.57;;
64959;SDS011;51487;52.266;10.542;2022-11-20T10:15:10;9.77;;;7.30;;
64959;SDS011;51487;52.266;10.542;2022-11-20T10:18:09;10.20;;;7.50;;
64959;SDS011;51487;52.266;10.542;2022-11-20T10:30:19;8.13;;;6.18;;
64959;SDS011;51487;52.266;10.542;2022-11-20T10:32:50;7.68;;;6.10;;
64959;SDS011;51487;52.266;10.542;2022-11-20T10:38:23;8.50;;;5.97;;
64959;SDS011;51487;52.266;10.542;2022-11-20T10:41:00;8.65;;;6.15;;
64959;SDS011;51487;52.266;10.542;2022-11-20T10:43:46;10.63;;;6.38;;
64959;SDS011;51487;52.266;10.542;2022-11-20T10:46:17;7.95;;;5.90;;
64959;SDS011;51487;52.266;10.542;2022-11-20T10:48:47;9.60;;;6.47;;
64959;SDS011;51487;52.266;10.542;2022-11-20T10:54:16;8.85;;;6.38;;
64959;SDS011;51487;52.266;10.542;2022-11-20T10:56:48;8.90;;;6.32;;
64959;SDS011;51487;52.266;10.542;2022-11-20T11:02:34;11.30;;;7.40;;
64959;SDS011;51487;52.266;10.542;2022-11-20T11:05:39;7.82;;;6.50;;
64959;SDS011;51487;52.266;10.542;2022-11-20T11:08:14;8.95;;;6.15;;
64959;SDS011;51487;52.266;10.542;2022-11-20T11:13:23;10.70;;;7.45;;
64959;SDS011;51487;52.266;10.542;2022-11-20T11:15:54;9.00;;;6.53;;
64959;SDS011;51487;52.266;10.542;2022-11-20T11:18:24;9.23;;;6.70;;
64959;SDS011;51487;52.266;10.542;2022-11-20T11:20:57;10.30;;;7.03;;
64959;SDS011;51487;52.266;10.542;2022-11-20T11:26:02;11.02;;;7.55;;
64959;SDS011;51487;52.266;10.542;2022-11-20T11:28:31;10.27;;;8.10;;
64959;SDS011;51487;52.266;10.542;2022-11-20T11:30:58;10.35;;;7.75;;
64959;SDS011;51487;52.266;10.542;2022-11-20T11:33:27;10.48;;;7.78;;
64959;SDS011;51487;52.266;10.542;2022-11-20T11:35:57;10.60;;;8.02;;
64959;SDS011;51487;52.266;10.542;2022-11-20T11:38:32;9.00;;;7.57;;
64959;SDS011;51487;52.266;10.542;2022-11-20T11:41:04;7.32;;;5.82;;
64959;SDS011;51487;52.266;10.542;2022-11-20T11:43:34;9.77;;;7.15;;
64959;SDS011;51487;52.266;10.542;2022-11-20T11:46:25;8.25;;;6.35;;
64959;SDS011;51487;52.266;10.542;2022-11-20T11:51:38;9.40;;;7.32;;
64959;SDS011;51487;52.266;10.542;2022-11-20T11:54:32;10.52;;;6.38;;
64959;SDS011;51487;52.266;10.542;2022-11-20T11:57:10;9.48;;;7.45;;
64959;SDS011;51487;52.266;10.542;2022-11-20T11:59:54;9.02;;;6.57;;
64959;SDS011;51487;52.266;10.542;2022-11-20T12:02:36;9.85;;;7.35;;
64959;SDS011;51487;52.266;10.542;2022-11-20T12:07:54;9.95;;;6.95;;
64959;SDS011;51487;52.266;10.542;2022-11-20T12:10:49;8.25;;;6.45;;
64959;SDS011;51487;52.266;10.542;2022-11-20T12:16:30;10.07;;;7.60;;
64959;SDS011;51487;52.266;10.542;2022-11-20T12:19:03;9.93;;;6.85;;
64959;SDS011;51487;52.266;10.542;2022-11-20T12:31:00;9.63;;;6.40;;
64959;SDS011;51487;52.266;10.542;2022-11-20T12:34:02;7.53;;;6.03;;
64959;SDS011;51487;52.266;10.542;2022-11-20T12:39:34;8.82;;;6.03;;
64959;SDS011;51487;52.266;10.542;2022-11-20T12:42:21;8.52;;;6.30;;
64959;SDS011;51487;52.266;10.542;2022-11-20T12:48:39;7.93;;;6.05;;
64959;SDS011;51487;52.266;10.542;2022-11-20T12:54:10;7.97;;;6.18;;
64959;SDS011;51487;52.266;10.542;2022-11-20T12:57:15;12.18;;;6.88;;
64959;SDS011;51487;52.266;10.542;2022-11-20T12:59:57;9.18;;;6.60;;
64959;SDS011;51487;52.266;10.542;2022-11-20T13:07:57;8.52;;;6.05;;
64959;SDS011;51487;52.266;10.542;2022-11-20T13:13:11;9.15;;;6.63;;
64959;SDS011;51487;52.266;10.542;2022-11-20T13:18:25;10.30;;;6.68;;
64959;SDS011;51487;52.266;10.542;2022-11-20T13:20:52;8.05;;;6.47;;
64959;SDS011;51487;52.266;10.542;2022-11-20T13:23:27;9.50;;;7.07;;
64959;SDS011;51487;52.266;10.542;2022-11-20T13:28:44;9.77;;;6.13;;
64959;SDS011;51487;52.266;10.542;2022-11-20T13:31:24;8.55;;;6.65;;
64959;SDS011;51487;52.266;10.542;2022-11-20T13:33:56;8.27;;;6.43;;
64959;SDS011;51487;52.266;10.542;2022-11-20T13:36:27;9.07;;;6.20;;
64959;SDS011;51487;52.266;10.542;2022-11-20T13:38:55;9.18;;;7.35;;
64959;SDS011;51487;52.266;10.542;2022-11-20T13:41:35;9.45;;;6.82;;
64959;SDS011;51487;52.266;10.542;2022-11-20T13:44:10;10.20;;;6.60;;
64959;SDS011;51487;52.266;10.542;2022-11-20T13:46:50;8.80;;;6.53;;
64959;SDS011;51487;52.266;10.542;2022-11-20T13:49:32;8.20;;;6.45;;
64959;SDS011;51487;52.266;10.542;2022-11-20T14:00:57;9.95;;;6.15;;
64959;SDS011;51487;52.266;10.542;2022-11-20T14:03:33;9.27;;;6.88;;
64959;SDS011;51487;52.266;10.542;2022-11-20T14:06:03;10.35;;;7.20;;
64959;SDS011;51487;52.266;10.542;2022-11-20T14:08:40;9.18;;;6.65;;
64959;SDS011;51487;52.266;10.542;2022-11-20T14:14:13;10.23;;;7.40;;
64959;SDS011;51487;52.266;10.542;2022-11-20T14:16:42;8.13;;;6.55;;
64959;SDS011;51487;52.266;10.542;2022-11-20T14:19:30;8.57;;;6.65;;
64959;SDS011;51487;52.266;10.542;2022-11-20T14:22:09;9.15;;;6.75;;
64959;SDS011;51487;52.266;10.542;2022-11-20T14:24:46;7.72;;;6.35;;
64959;SDS011;51487;52.266;10.542;2022-11-20T14:27:14;8.65;;;6.22;;
64959;SDS011;51487;52.266;10.542;2022-11-20T14:29:45;9.65;;;6.85;;
64959;SDS011;51487;52.266;10.542;2022-11-20T14:32:15;8.70;;;6.72;;
64959;SDS011;51487;52.266;10.542;2022-11-20T14:34:44;9.52;;;6.55;;
64959;SDS011;51487;52.266;10.542;2022-11-20T14:37:17;8.73;;;6.82;;
64959;SDS011;51487;52.266;10.542;2022-11-20T14:39:52;11.38;;;7.13;;
64959;SDS011;51487;52.266;10.542;2022-11-20T14:42:24;13.07;;;8.02;;
64959;SDS011;51487;52.266;10.542;2022-11-20T14:44:55;10.25;;;7.53;;
64959;SDS011;51487;52.266;10.542;2022-11-20T14:47:27;11.77;;;7.60;;
64959;SDS011;51487;52.266;10.542;2022-11-20T14:49:56;10.65;;;7.53;;
64959;SDS011;51487;52.266;10.542;2022-11-20T14:52:25;11.65;;;7.15;;
64959;SDS011;51487;52.266;10.542;2022-11-20T14:54:56;12.10;;;7.88;;
64959;SDS011;51487;52.266;10.542;2022-11-20T15:00:04;13.45;;;8.07;;
64959;SDS011;51487;52.266;10.542;2022-11-20T15:02:46;11.65;;;7.47;;
64959;SDS011;51487;52.266;10.542;2022-11-20T15:05:15;9.60;;;7.43;;
64959;SDS011;51487;52.266;10.542;2022-11-20T15:07:48;10.20;;;7.38;;
64959;SDS011;51487;52.266;10.542;2022-11-20T15:10:34;8.45;;;6.93;;
64959;SDS011;51487;52.266;10.542;2022-11-20T15:13:11;11.38;;;8.60;;
64959;SDS011;51487;52.266;10.542;2022-11-20T15:15:48;11.55;;;8.45;;
64959;SDS011;51487;52.266;10.542;2022-11-20T15:18:17;11.75;;;9.00;;
64959;SDS011;51487;52.266;10.542;2022-11-20T15:20:54;10.98;;;7.97;;
64959;SDS011;51487;52.266;10.542;2022-11-20T15:23:22;12.18;;;8.18;;
64959;SDS011;51487;52.266;10.542;2022-11-20T15:25:52;12.57;;;8.27;;
64959;SDS011;51487;52.266;10.542;2022-11-20T15:28:23;11.40;;;7.93;;
64959;SDS011;51487;52.266;10.542;2022-11-20T15:30:59;10.07;;;7.60;;
64959;SDS011;51487;52.266;10.542;2022-11-20T15:33:25;10.95;;;7.90;;
64959;SDS011;51487;52.266;10.542;2022-11-20T15:35:51;9.45;;;7.30;;
64959;SDS011;51487;52.266;10.542;2022-11-20T15:38:16;10.57;;;7.07;;
64959;SDS011;51487;52.266;10.542;2022-11-20T15:40:42;11.98;;;7.88;;
64959;SDS011;51487;52.266;10.542;2022-11-20T15:43:08;10.25;;;7.65;;
64959;SDS011;51487;52.266;10.542;2022-11-20T15:48:44;10.50;;;7.63;;
64959;SDS011;51487;52.266;10.542;2022-11-20T15:51:34;11.50;;;8.48;;
64959;SDS011;51487;52.266;10.542;2022-11-20T15:54:10;10.95;;;7.80;;
64959;SDS011;51487;52.266;10.542;2022-11-20T15:56:43;12.00;;;7.95;;
64959;SDS011;51487;52.266;10.542;2022-11-20T15:59:08;11.93;;;8.10;;
64959;SDS011;51487;52.266;10.542;2022-11-20T16:01:34;12.63;;;8.43;;
64959;SDS011;51487;52.266;10.542;2022-11-20T16:04:00;13.68;;;9.18;;
64959;SDS011;51487;52.266;10.542;2022-11-20T16:06:26;12.05;;;8.65;;
64959;SDS011;51487;52.266;10.542;2022-11-20T16:08:52;12.68;;;8.80;;
64959;SDS011;51487;52.266;10.542;2022-11-20T16:11:17;11.88;;;8.60;;
64959;SDS011;51487;52.266;10.542;2022-11-20T16:13:44;10.52;;;8.23;;
64959;SDS011;51487;52.266;10.542;2022-11-20T16:16:29;12.23;;;9.35;;
64959;SDS011;51487;52.266;10.542;2022-11-20T16:18:59;12.23;;;8.93;;
64959;SDS011;51487;52.266;10.542;2022-11-20T16:21:25;12.50;;;8.98;;